sensor_id;sensor_type;location;lat;lon;timestamp;temperature;humidity
17200;DHT22;8716;52.268;20.968;2023-05-21T00:01:45;15.50;99.90
17200;DHT22;8716;52.268;20.968;2023-05-21T00:04:15;15.50;99.90
17200;DHT22;8716;52.268;20.968;2023-05-21T00:06:44;15.50;99.90
17200;DHT22;8716;52.268;20.968;2023-05-21T00:09:12;15.40;99.90
17200;DHT22;8716;52.268;20.968;2023-05-21T00:11:41;15.40;99.90
17200;DHT22;8716;52.268;20.968;2023-05-21T00:14:10;15.40;99.90
17200;DHT22;8716;52.268;20.968;2023-05-21T00:16:38;15.40;99.90
17200;DHT22;8716;52.268;20.968;2023-05-21T00:19:09;15.40;99.90
17200;DHT22;8716;52.268;20.968;2023-05-21T00:21:37;15.40;99.90
17200;DHT22;8716;52.268;20.968;2023-05-21T00:24:07;15.30;99.90
17200;DHT22;8716;52.268;20.968;2023-05-21T00:26:35;15.20;99.90
17200;DHT22;8716;52.268;20.968;2023-05-21T00:29:05;15.20;99.90
17200;DHT22;8716;52.268;20.968;2023-05-21T00:31:33;15.10;99.90
17200;DHT22;8716;52.268;20.968;2023-05-21T00:34:01;15.10;99.90
17200;DHT22;8716;52.268;20.968;2023-05-21T00:36:30;15.10;99.90
17200;DHT22;8716;52.268;20.968;2023-05-21T00:39:00;15.00;99.90
17200;DHT22;8716;52.268;20.968;2023-05-21T00:41:30;15.00;99.90
17200;DHT22;8716;52.268;20.968;2023-05-21T00:43:58;14.90;99.90
17200;DHT22;8716;52.268;20.968;2023-05-21T00:46:28;14.90;99.90
17200;DHT22;8716;52.268;20.968;2023-05-21T00:48:56;14.80;99.90
17200;DHT22;8716;52.268;20.968;2023-05-21T00:51:25;14.80;99.90
17200;DHT22;8716;52.268;20.968;2023-05-21T00:53:57;14.70;99.90
17200;DHT22;8716;52.268;20.968;2023-05-21T00:56:26;14.70;99.90
17200;DHT22;8716;52.268;20.968;2023-05-21T00:58:55;14.70;99.90
17200;DHT22;8716;52.268;20.968;2023-05-21T01:01:24;14.70;99.90
17200;DHT22;8716;52.268;20.968;2023-05-21T01:03:54;14.70;99.90
17200;DHT22;8716;52.268;20.968;2023-05-21T01:06:24;14.60;99.90
17200;DHT22;8716;52.268;20.968;2023-05-21T01:08:52;14.60;99.90
17200;DHT22;8716;52.268;20.968;2023-05-21T01:11:24;14.50;99.90
17200;DHT22;8716;52.268;20.968;2023-05-21T01:13:56;14.50;99.90
17200;DHT22;8716;52.268;20.968;2023-05-21T01:16:24;14.50;99.90
17200;DHT22;8716;52.268;20.968;2023-05-21T01:18:54;14.40;99.90
17200;DHT22;8716;52.268;20.968;2023-05-21T01:21:26;14.40;99.90
17200;DHT22;8716;52.268;20.968;2023-05-21T01:23:58;14.30;99.90
17200;DHT22;8716;52.268;20.968;2023-05-21T01:26:28;14.30;99.90
17200;DHT22;8716;52.268;20.968;2023-05-21T01:28:56;14.30;99.90
17200;DHT22;8716;52.268;20.968;2023-05-21T01:31:28;14.30;99.90
17200;DHT22;8716;52.268;20.968;2023-05-21T01:34:04;14.20;99.90
17200;DHT22;8716;52.268;20.968;2023-05-21T01:36:39;14.20;99.90
17200;DHT22;8716;52.268;20.968;2023-05-21T01:39:14;14.20;99.90
17200;DHT22;8716;52.268;20.968;2023-05-21T01:41:47;14.20;99.90
17200;DHT22;8716;52.268;20.968;2023-05-21T01:44:18;14.20;99.90
17200;DHT22;8716;52.268;20.968;2023-05-21T01:46:46;14.20;99.90
17200;DHT22;8716;52.268;20.968;2023-05-21T01:49:16;14.20;99.90
17200;DHT22;8716;52.268;20.968;2023-05-21T01:51:46;14.10;99.90
17200;DHT22;8716;52.268;20.968;2023-05-21T01:54:16;14.10;99.90
17200;DHT22;8716;52.268;20.968;2023-05-21T01:56:44;14.00;99.90
17200;DHT22;8716;52.268;20.968;2023-05-21T01:59:13;14.00;99.90
17200;DHT22;8716;52.268;20.968;2023-05-21T02:01:43;13.90;99.90
17200;DHT22;8716;52.268;20.968;2023-05-21T02:04:11;13.90;99.90
17200;DHT22;8716;52.268;20.968;2023-05-21T02:06:40;13.90;99.90
17200;DHT22;8716;52.268;20.968;2023-05-21T02:09:08;13.90;99.90
17200;DHT22;8716;52.268;20.968;2023-05-21T02:11:38;13.90;99.90
17200;DHT22;8716;52.268;20.968;2023-05-21T02:14:06;13.80;99.90
17200;DHT22;8716;52.268;20.968;2023-05-21T02:16:36;13.80;99.90
17200;DHT22;8716;52.268;20.968;2023-05-21T02:19:05;13.70;99.90
17200;DHT22;8716;52.268;20.968;2023-05-21T02:21:33;13.70;99.90
17200;DHT22;8716;52.268;20.968;2023-05-21T02:24:01;13.70;99.90
17200;DHT22;8716;52.268;20.968;2023-05-21T02:26:30;13.70;99.90
17200;DHT22;8716;52.268;20.968;2023-05-21T02:28:59;13.60;99.90
17200;DHT22;8716;52.268;20.968;2023-05-21T02:31:28;13.60;99.90
17200;DHT22;8716;52.268;20.968;2023-05-21T02:33:56;13.60;99.90
17200;DHT22;8716;52.268;20.968;2023-05-21T02:36:24;13.60;99.90
17200;DHT22;8716;52.268;20.968;2023-05-21T02:38:54;13.60;99.90
17200;DHT22;8716;52.268;20.968;2023-05-21T02:41:26;13.50;99.90
17200;DHT22;8716;52.268;20.968;2023-05-21T02:43:54;13.50;99.90
17200;DHT22;8716;52.268;20.968;2023-05-21T02:46:24;13.50;99.90
17200;DHT22;8716;52.268;20.968;2023-05-21T02:48:52;13.50;99.90
17200;DHT22;8716;52.268;20.968;2023-05-21T02:51:20;13.50;99.90
17200;DHT22;8716;52.268;20.968;2023-05-21T02:53:49;13.50;99.90
17200;DHT22;8716;52.268;20.968;2023-05-21T02:56:17;13.40;99.90
17200;DHT22;8716;52.268;20.968;2023-05-21T02:58:46;13.40;99.90
17200;DHT22;8716;52.268;20.968;2023-05-21T03:01:14;13.40;99.90
17200;DHT22;8716;52.268;20.968;2023-05-21T03:03:44;13.30;99.90
17200;DHT22;8716;52.268;20.968;2023-05-21T03:06:12;13.30;99.90
17200;DHT22;8716;52.268;20.968;2023-05-21T03:08:42;13.30;99.90
17200;DHT22;8716;52.268;20.968;2023-05-21T03:11:10;13.30;99.90
17200;DHT22;8716;52.268;20.968;2023-05-21T03:13:38;13.30;99.90
17200;DHT22;8716;52.268;20.968;2023-05-21T03:16:08;13.30;99.90
17200;DHT22;8716;52.268;20.968;2023-05-21T03:18:37;13.30;99.90
17200;DHT22;8716;52.268;20.968;2023-05-21T03:21:06;13.20;99.90
17200;DHT22;8716;52.268;20.968;2023-05-21T03:23:35;13.30;99.90
17200;DHT22;8716;52.268;20.968;2023-05-21T03:26:05;13.30;99.90
17200;DHT22;8716;52.268;20.968;2023-05-21T03:28:34;13.30;99.90
17200;DHT22;8716;52.268;20.968;2023-05-21T03:31:03;13.30;99.90
17200;DHT22;8716;52.268;20.968;2023-05-21T03:34:01;13.30;99.90
17200;DHT22;8716;52.268;20.968;2023-05-21T03:36:32;13.30;99.90
17200;DHT22;8716;52.268;20.968;2023-05-21T03:39:01;13.30;99.90
17200;DHT22;8716;52.268;20.968;2023-05-21T03:41:32;13.30;99.90
17200;DHT22;8716;52.268;20.968;2023-05-21T03:44:15;13.30;99.90
17200;DHT22;8716;52.268;20.968;2023-05-21T03:46:49;13.30;99.90
17200;DHT22;8716;52.268;20.968;2023-05-21T03:49:26;13.40;99.90
17200;DHT22;8716;52.268;20.968;2023-05-21T03:51:57;13.50;99.90
17200;DHT22;8716;52.268;20.968;2023-05-21T03:54:26;13.60;99.90
17200;DHT22;8716;52.268;20.968;2023-05-21T03:57:00;13.60;99.90
17200;DHT22;8716;52.268;20.968;2023-05-21T03:59:28;13.60;99.90
17200;DHT22;8716;52.268;20.968;2023-05-21T04:01:57;13.70;99.90
17200;DHT22;8716;52.268;20.968;2023-05-21T04:04:26;13.80;99.90
17200;DHT22;8716;52.268;20.968;2023-05-21T04:06:56;13.80;99.90
17200;DHT22;8716;52.268;20.968;2023-05-21T04:09:25;13.90;99.90
17200;DHT22;8716;52.268;20.968;2023-05-21T04:11:54;13.90;99.90
17200;DHT22;8716;52.268;20.968;2023-05-21T04:14:25;14.00;99.90
17200;DHT22;8716;52.268;20.968;2023-05-21T04:16:54;14.10;99.90
17200;DHT22;8716;52.268;20.968;2023-05-21T04:19:22;14.20;99.90
17200;DHT22;8716;52.268;20.968;2023-05-21T04:21:51;14.20;99.90
17200;DHT22;8716;52.268;20.968;2023-05-21T04:24:21;14.30;99.90
17200;DHT22;8716;52.268;20.968;2023-05-21T04:27:09;14.30;99.90
17200;DHT22;8716;52.268;20.968;2023-05-21T04:29:38;14.40;99.90
17200;DHT22;8716;52.268;20.968;2023-05-21T04:32:08;14.50;99.90
17200;DHT22;8716;52.268;20.968;2023-05-21T04:34:39;14.50;99.90
17200;DHT22;8716;52.268;20.968;2023-05-21T04:37:09;14.60;99.90
17200;DHT22;8716;52.268;20.968;2023-05-21T04:39:42;14.70;99.90
17200;DHT22;8716;52.268;20.968;2023-05-21T04:42:10;14.80;99.90
17200;DHT22;8716;52.268;20.968;2023-05-21T04:44:41;14.90;99.90
17200;DHT22;8716;52.268;20.968;2023-05-21T04:47:10;15.00;99.90
17200;DHT22;8716;52.268;20.968;2023-05-21T04:49:41;15.10;99.90
17200;DHT22;8716;52.268;20.968;2023-05-21T04:52:09;15.10;99.90
17200;DHT22;8716;52.268;20.968;2023-05-21T04:54:38;15.20;99.90
17200;DHT22;8716;52.268;20.968;2023-05-21T04:57:09;15.40;99.90
17200;DHT22;8716;52.268;20.968;2023-05-21T04:59:37;15.60;99.90
17200;DHT22;8716;52.268;20.968;2023-05-21T05:02:09;15.80;99.90
17200;DHT22;8716;52.268;20.968;2023-05-21T05:04:37;16.20;99.90
17200;DHT22;8716;52.268;20.968;2023-05-21T05:07:08;16.60;99.90
17200;DHT22;8716;52.268;20.968;2023-05-21T05:09:36;17.00;99.90
17200;DHT22;8716;52.268;20.968;2023-05-21T05:12:05;17.60;99.90
17200;DHT22;8716;52.268;20.968;2023-05-21T05:14:35;18.20;99.90
17200;DHT22;8716;52.268;20.968;2023-05-21T05:17:05;18.80;99.90
17200;DHT22;8716;52.268;20.968;2023-05-21T05:19:35;19.50;99.90
17200;DHT22;8716;52.268;20.968;2023-05-21T05:22:04;20.20;99.90
17200;DHT22;8716;52.268;20.968;2023-05-21T05:24:35;20.90;99.90
17200;DHT22;8716;52.268;20.968;2023-05-21T05:27:03;21.70;99.90
17200;DHT22;8716;52.268;20.968;2023-05-21T05:29:35;22.40;99.90
17200;DHT22;8716;52.268;20.968;2023-05-21T05:32:04;23.20;99.90
17200;DHT22;8716;52.268;20.968;2023-05-21T05:34:33;24.10;99.90
17200;DHT22;8716;52.268;20.968;2023-05-21T05:37:01;24.90;99.90
17200;DHT22;8716;52.268;20.968;2023-05-21T05:39:32;25.70;99.90
17200;DHT22;8716;52.268;20.968;2023-05-21T05:42:01;26.40;98.90
17200;DHT22;8716;52.268;20.968;2023-05-21T05:44:29;27.10;97.10
17200;DHT22;8716;52.268;20.968;2023-05-21T05:47:00;27.80;94.30
17200;DHT22;8716;52.268;20.968;2023-05-21T05:49:28;28.40;93.00
17200;DHT22;8716;52.268;20.968;2023-05-21T05:51:56;29.00;91.30
17200;DHT22;8716;52.268;20.968;2023-05-21T05:54:27;29.80;88.80
17200;DHT22;8716;52.268;20.968;2023-05-21T05:56:56;30.40;84.30
17200;DHT22;8716;52.268;20.968;2023-05-21T05:59:25;30.90;82.10
17200;DHT22;8716;52.268;20.968;2023-05-21T06:01:59;31.40;78.10
17200;DHT22;8716;52.268;20.968;2023-05-21T06:04:30;31.90;77.00
17200;DHT22;8716;52.268;20.968;2023-05-21T06:06:58;32.60;73.80
17200;DHT22;8716;52.268;20.968;2023-05-21T06:09:27;32.90;72.40
17200;DHT22;8716;52.268;20.968;2023-05-21T06:11:55;33.30;70.90
17200;DHT22;8716;52.268;20.968;2023-05-21T06:14:24;33.60;68.40
17200;DHT22;8716;52.268;20.968;2023-05-21T06:16:52;33.90;68.50
17200;DHT22;8716;52.268;20.968;2023-05-21T06:19:22;34.20;66.30
17200;DHT22;8716;52.268;20.968;2023-05-21T06:21:50;34.60;66.00
17200;DHT22;8716;52.268;20.968;2023-05-21T06:24:19;35.00;66.20
17200;DHT22;8716;52.268;20.968;2023-05-21T06:26:47;35.40;63.60
17200;DHT22;8716;52.268;20.968;2023-05-21T06:29:15;35.70;62.00
17200;DHT22;8716;52.268;20.968;2023-05-21T06:31:46;36.00;61.40
17200;DHT22;8716;52.268;20.968;2023-05-21T06:34:14;36.20;61.40
17200;DHT22;8716;52.268;20.968;2023-05-21T06:36:44;36.60;59.50
17200;DHT22;8716;52.268;20.968;2023-05-21T06:39:13;36.80;58.60
17200;DHT22;8716;52.268;20.968;2023-05-21T06:41:42;37.00;58.50
17200;DHT22;8716;52.268;20.968;2023-05-21T06:44:36;37.30;57.40
17200;DHT22;8716;52.268;20.968;2023-05-21T06:47:24;37.50;56.00
17200;DHT22;8716;52.268;20.968;2023-05-21T06:49:53;37.60;55.00
17200;DHT22;8716;52.268;20.968;2023-05-21T06:52:23;37.90;55.30
17200;DHT22;8716;52.268;20.968;2023-05-21T06:54:53;38.40;55.30
17200;DHT22;8716;52.268;20.968;2023-05-21T06:57:23;38.80;54.80
17200;DHT22;8716;52.268;20.968;2023-05-21T06:59:52;39.20;54.10
17200;DHT22;8716;52.268;20.968;2023-05-21T07:02:20;39.30;53.30
17200;DHT22;8716;52.268;20.968;2023-05-21T07:04:49;39.30;53.70
17200;DHT22;8716;52.268;20.968;2023-05-21T07:07:18;39.50;53.80
17200;DHT22;8716;52.268;20.968;2023-05-21T07:09:48;39.80;53.10
17200;DHT22;8716;52.268;20.968;2023-05-21T07:12:17;40.00;52.50
17200;DHT22;8716;52.268;20.968;2023-05-21T07:14:46;40.10;51.80
17200;DHT22;8716;52.268;20.968;2023-05-21T07:17:15;40.20;52.00
17200;DHT22;8716;52.268;20.968;2023-05-21T07:19:43;40.40;51.50
17200;DHT22;8716;52.268;20.968;2023-05-21T07:22:11;40.40;50.90
17200;DHT22;8716;52.268;20.968;2023-05-21T07:24:40;40.60;51.40
17200;DHT22;8716;52.268;20.968;2023-05-21T07:27:10;40.60;50.20
17200;DHT22;8716;52.268;20.968;2023-05-21T07:29:53;40.80;50.00
17200;DHT22;8716;52.268;20.968;2023-05-21T07:32:21;40.90;49.20
17200;DHT22;8716;52.268;20.968;2023-05-21T07:34:53;40.80;49.40
17200;DHT22;8716;52.268;20.968;2023-05-21T07:37:24;41.00;49.50
17200;DHT22;8716;52.268;20.968;2023-05-21T07:39:55;41.00;49.30
17200;DHT22;8716;52.268;20.968;2023-05-21T07:42:25;41.00;48.60
17200;DHT22;8716;52.268;20.968;2023-05-21T07:44:55;41.00;48.10
17200;DHT22;8716;52.268;20.968;2023-05-21T07:47:27;41.00;49.80
17200;DHT22;8716;52.268;20.968;2023-05-21T07:49:55;41.20;48.10
17200;DHT22;8716;52.268;20.968;2023-05-21T07:52:24;41.50;47.60
17200;DHT22;8716;52.268;20.968;2023-05-21T07:54:53;41.50;48.20
17200;DHT22;8716;52.268;20.968;2023-05-21T07:57:22;41.80;47.90
17200;DHT22;8716;52.268;20.968;2023-05-21T07:59:58;41.90;47.60
17200;DHT22;8716;52.268;20.968;2023-05-21T08:02:28;42.00;46.90
17200;DHT22;8716;52.268;20.968;2023-05-21T08:04:57;42.10;47.60
17200;DHT22;8716;52.268;20.968;2023-05-21T08:07:27;42.20;46.70
17200;DHT22;8716;52.268;20.968;2023-05-21T08:09:55;42.40;46.50
17200;DHT22;8716;52.268;20.968;2023-05-21T08:12:26;42.50;46.00
17200;DHT22;8716;52.268;20.968;2023-05-21T08:14:57;42.60;46.40
17200;DHT22;8716;52.268;20.968;2023-05-21T08:17:26;42.90;46.30
17200;DHT22;8716;52.268;20.968;2023-05-21T08:19:55;43.10;46.10
17200;DHT22;8716;52.268;20.968;2023-05-21T08:22:23;43.10;45.60
17200;DHT22;8716;52.268;20.968;2023-05-21T08:24:51;43.00;45.10
17200;DHT22;8716;52.268;20.968;2023-05-21T08:27:20;42.90;44.50
17200;DHT22;8716;52.268;20.968;2023-05-21T08:29:50;43.10;44.80
17200;DHT22;8716;52.268;20.968;2023-05-21T08:32:20;43.30;44.90
17200;DHT22;8716;52.268;20.968;2023-05-21T08:34:49;43.50;43.70
17200;DHT22;8716;52.268;20.968;2023-05-21T08:37:33;43.30;43.30
17200;DHT22;8716;52.268;20.968;2023-05-21T08:40:12;43.40;43.30
17200;DHT22;8716;52.268;20.968;2023-05-21T08:42:44;43.30;42.20
17200;DHT22;8716;52.268;20.968;2023-05-21T08:45:21;43.00;42.50
17200;DHT22;8716;52.268;20.968;2023-05-21T08:47:54;43.00;44.00
17200;DHT22;8716;52.268;20.968;2023-05-21T08:50:26;43.20;42.70
17200;DHT22;8716;52.268;20.968;2023-05-21T08:52:58;43.10;43.00
17200;DHT22;8716;52.268;20.968;2023-05-21T08:55:35;42.70;41.80
17200;DHT22;8716;52.268;20.968;2023-05-21T08:58:05;42.20;41.20
17200;DHT22;8716;52.268;20.968;2023-05-21T09:00:33;41.90;41.10
17200;DHT22;8716;52.268;20.968;2023-05-21T09:03:04;41.70;41.20
17200;DHT22;8716;52.268;20.968;2023-05-21T09:05:38;41.30;41.30
17200;DHT22;8716;52.268;20.968;2023-05-21T09:08:13;41.20;42.00
17200;DHT22;8716;52.268;20.968;2023-05-21T09:10:53;41.60;41.30
17200;DHT22;8716;52.268;20.968;2023-05-21T09:13:27;41.80;41.40
17200;DHT22;8716;52.268;20.968;2023-05-21T09:16:28;42.20;41.70
17200;DHT22;8716;52.268;20.968;2023-05-21T09:18:59;42.60;41.20
17200;DHT22;8716;52.268;20.968;2023-05-21T09:21:34;42.70;40.20
17200;DHT22;8716;52.268;20.968;2023-05-21T09:24:08;42.30;40.60
17200;DHT22;8716;52.268;20.968;2023-05-21T09:26:41;41.80;41.00
17200;DHT22;8716;52.268;20.968;2023-05-21T09:29:12;41.80;40.80
17200;DHT22;8716;52.268;20.968;2023-05-21T09:31:42;41.70;40.20
17200;DHT22;8716;52.268;20.968;2023-05-21T09:34:14;41.40;40.10
17200;DHT22;8716;52.268;20.968;2023-05-21T09:36:44;41.40;41.00
17200;DHT22;8716;52.268;20.968;2023-05-21T09:39:26;41.60;41.30
17200;DHT22;8716;52.268;20.968;2023-05-21T09:41:59;41.60;40.90
17200;DHT22;8716;52.268;20.968;2023-05-21T09:44:28;41.30;41.10
17200;DHT22;8716;52.268;20.968;2023-05-21T09:47:01;41.30;41.70
17200;DHT22;8716;52.268;20.968;2023-05-21T09:49:30;41.80;41.70
17200;DHT22;8716;52.268;20.968;2023-05-21T09:51:59;41.90;40.30
17200;DHT22;8716;52.268;20.968;2023-05-21T09:54:30;41.50;40.70
17200;DHT22;8716;52.268;20.968;2023-05-21T09:56:59;41.30;41.90
17200;DHT22;8716;52.268;20.968;2023-05-21T09:59:35;41.40;41.40
17200;DHT22;8716;52.268;20.968;2023-05-21T10:02:15;41.30;40.90
17200;DHT22;8716;52.268;20.968;2023-05-21T10:04:48;41.20;41.50
17200;DHT22;8716;52.268;20.968;2023-05-21T10:07:18;41.30;41.60
17200;DHT22;8716;52.268;20.968;2023-05-21T10:09:48;41.40;41.40
17200;DHT22;8716;52.268;20.968;2023-05-21T10:12:17;41.50;41.20
17200;DHT22;8716;52.268;20.968;2023-05-21T10:14:50;41.60;41.90
17200;DHT22;8716;52.268;20.968;2023-05-21T10:17:24;41.60;41.50
17200;DHT22;8716;52.268;20.968;2023-05-21T10:19:55;41.60;40.80
17200;DHT22;8716;52.268;20.968;2023-05-21T10:22:24;41.20;40.80
17200;DHT22;8716;52.268;20.968;2023-05-21T10:24:53;40.80;42.20
17200;DHT22;8716;52.268;20.968;2023-05-21T10:27:21;40.90;40.70
17200;DHT22;8716;52.268;20.968;2023-05-21T10:29:52;40.50;41.50
17200;DHT22;8716;52.268;20.968;2023-05-21T10:32:22;40.20;42.20
17200;DHT22;8716;52.268;20.968;2023-05-21T10:34:52;39.90;42.70
17200;DHT22;8716;52.268;20.968;2023-05-21T10:37:23;39.80;43.10
17200;DHT22;8716;52.268;20.968;2023-05-21T10:39:54;39.90;43.70
17200;DHT22;8716;52.268;20.968;2023-05-21T10:42:41;39.80;43.00
17200;DHT22;8716;52.268;20.968;2023-05-21T10:45:19;39.60;45.10
17200;DHT22;8716;52.268;20.968;2023-05-21T10:48:04;39.40;42.90
17200;DHT22;8716;52.268;20.968;2023-05-21T10:50:47;39.00;42.80
17200;DHT22;8716;52.268;20.968;2023-05-21T10:53:31;38.60;43.20
17200;DHT22;8716;52.268;20.968;2023-05-21T10:56:11;38.00;44.10
17200;DHT22;8716;52.268;20.968;2023-05-21T10:59:02;37.50;45.00
17200;DHT22;8716;52.268;20.968;2023-05-21T11:01:36;37.00;45.30
17200;DHT22;8716;52.268;20.968;2023-05-21T11:04:05;36.70;46.50
17200;DHT22;8716;52.268;20.968;2023-05-21T11:06:33;36.40;45.50
17200;DHT22;8716;52.268;20.968;2023-05-21T11:09:11;35.70;45.70
17200;DHT22;8716;52.268;20.968;2023-05-21T11:11:42;35.30;46.30
17200;DHT22;8716;52.268;20.968;2023-05-21T11:14:31;35.20;46.40
17200;DHT22;8716;52.268;20.968;2023-05-21T11:17:07;34.80;46.40
17200;DHT22;8716;52.268;20.968;2023-05-21T11:19:40;34.40;47.30
17200;DHT22;8716;52.268;20.968;2023-05-21T11:22:19;34.00;47.60
17200;DHT22;8716;52.268;20.968;2023-05-21T11:24:50;33.60;49.30
17200;DHT22;8716;52.268;20.968;2023-05-21T11:27:30;33.50;49.50
17200;DHT22;8716;52.268;20.968;2023-05-21T11:30:01;33.50;48.70
17200;DHT22;8716;52.268;20.968;2023-05-21T11:32:30;33.40;49.10
17200;DHT22;8716;52.268;20.968;2023-05-21T11:34:59;33.40;50.50
17200;DHT22;8716;52.268;20.968;2023-05-21T11:37:29;33.10;49.20
17200;DHT22;8716;52.268;20.968;2023-05-21T11:43:02;32.80;49.80
17200;DHT22;8716;52.268;20.968;2023-05-21T11:45:31;32.60;49.90
17200;DHT22;8716;52.268;20.968;2023-05-21T11:48:03;32.40;49.20
17200;DHT22;8716;52.268;20.968;2023-05-21T11:50:32;32.20;49.00
17200;DHT22;8716;52.268;20.968;2023-05-21T11:53:01;31.90;48.70
17200;DHT22;8716;52.268;20.968;2023-05-21T11:55:30;31.80;48.80
17200;DHT22;8716;52.268;20.968;2023-05-21T11:58:00;31.80;50.30
17200;DHT22;8716;52.268;20.968;2023-05-21T12:00:29;31.50;50.00
17200;DHT22;8716;52.268;20.968;2023-05-21T12:02:57;31.30;50.00
17200;DHT22;8716;52.268;20.968;2023-05-21T12:05:26;31.10;50.60
17200;DHT22;8716;52.268;20.968;2023-05-21T12:07:56;31.00;50.50
17200;DHT22;8716;52.268;20.968;2023-05-21T12:10:25;30.90;50.50
17200;DHT22;8716;52.268;20.968;2023-05-21T12:12:53;30.80;50.80
17200;DHT22;8716;52.268;20.968;2023-05-21T12:15:25;30.50;50.60
17200;DHT22;8716;52.268;20.968;2023-05-21T12:17:54;30.50;51.30
17200;DHT22;8716;52.268;20.968;2023-05-21T12:20:25;30.40;51.90
17200;DHT22;8716;52.268;20.968;2023-05-21T12:22:56;30.30;52.50
17200;DHT22;8716;52.268;20.968;2023-05-21T12:25:25;30.10;52.30
17200;DHT22;8716;52.268;20.968;2023-05-21T12:27:59;29.90;52.80
17200;DHT22;8716;52.268;20.968;2023-05-21T12:30:29;29.80;53.10
17200;DHT22;8716;52.268;20.968;2023-05-21T12:32:58;29.80;52.50
17200;DHT22;8716;52.268;20.968;2023-05-21T12:35:29;29.70;53.20
17200;DHT22;8716;52.268;20.968;2023-05-21T12:38:00;29.60;52.80
17200;DHT22;8716;52.268;20.968;2023-05-21T12:40:35;29.50;53.00
17200;DHT22;8716;52.268;20.968;2023-05-21T12:43:05;29.40;52.20
17200;DHT22;8716;52.268;20.968;2023-05-21T12:45:37;29.30;52.40
17200;DHT22;8716;52.268;20.968;2023-05-21T12:48:06;29.10;53.30
17200;DHT22;8716;52.268;20.968;2023-05-21T12:50:38;29.10;53.70
17200;DHT22;8716;52.268;20.968;2023-05-21T12:53:08;29.10;54.30
17200;DHT22;8716;52.268;20.968;2023-05-21T12:55:37;29.00;53.90
17200;DHT22;8716;52.268;20.968;2023-05-21T12:58:06;28.90;54.00
17200;DHT22;8716;52.268;20.968;2023-05-21T13:00:36;28.70;54.10
17200;DHT22;8716;52.268;20.968;2023-05-21T13:03:05;28.60;54.60
17200;DHT22;8716;52.268;20.968;2023-05-21T13:05:34;28.40;53.90
17200;DHT22;8716;52.268;20.968;2023-05-21T13:08:02;28.30;54.50
17200;DHT22;8716;52.268;20.968;2023-05-21T13:10:30;28.20;54.30
17200;DHT22;8716;52.268;20.968;2023-05-21T13:12:59;28.10;54.10
17200;DHT22;8716;52.268;20.968;2023-05-21T13:15:27;28.10;54.80
17200;DHT22;8716;52.268;20.968;2023-05-21T13:17:58;28.10;55.00
17200;DHT22;8716;52.268;20.968;2023-05-21T13:20:29;28.10;55.20
17200;DHT22;8716;52.268;20.968;2023-05-21T13:22:57;28.00;55.10
17200;DHT22;8716;52.268;20.968;2023-05-21T13:25:27;27.80;55.00
17200;DHT22;8716;52.268;20.968;2023-05-21T13:27:56;27.70;54.70
17200;DHT22;8716;52.268;20.968;2023-05-21T13:30:25;27.50;54.70
17200;DHT22;8716;52.268;20.968;2023-05-21T13:32:53;27.40;55.20
17200;DHT22;8716;52.268;20.968;2023-05-21T13:35:23;27.40;55.60
17200;DHT22;8716;52.268;20.968;2023-05-21T13:37:55;27.40;55.20
17200;DHT22;8716;52.268;20.968;2023-05-21T13:40:23;27.40;55.10
17200;DHT22;8716;52.268;20.968;2023-05-21T13:42:54;27.20;55.30
17200;DHT22;8716;52.268;20.968;2023-05-21T13:45:22;27.10;55.60
17200;DHT22;8716;52.268;20.968;2023-05-21T13:47:55;27.00;55.80
17200;DHT22;8716;52.268;20.968;2023-05-21T13:50:25;26.90;55.60
17200;DHT22;8716;52.268;20.968;2023-05-21T13:52:53;26.90;55.60
17200;DHT22;8716;52.268;20.968;2023-05-21T13:55:24;26.90;55.10
17200;DHT22;8716;52.268;20.968;2023-05-21T13:57:52;26.90;55.10
17200;DHT22;8716;52.268;20.968;2023-05-21T14:00:20;26.90;55.40
17200;DHT22;8716;52.268;20.968;2023-05-21T14:02:48;26.80;54.70
17200;DHT22;8716;52.268;20.968;2023-05-21T14:05:17;26.70;54.10
17200;DHT22;8716;52.268;20.968;2023-05-21T14:07:47;26.70;54.20
17200;DHT22;8716;52.268;20.968;2023-05-21T14:10:15;26.60;53.90
17200;DHT22;8716;52.268;20.968;2023-05-21T14:12:43;26.50;54.10
17200;DHT22;8716;52.268;20.968;2023-05-21T14:15:13;26.40;53.40
17200;DHT22;8716;52.268;20.968;2023-05-21T14:17:41;26.40;53.80
17200;DHT22;8716;52.268;20.968;2023-05-21T14:20:10;26.40;53.90
17200;DHT22;8716;52.268;20.968;2023-05-21T14:22:39;26.40;54.60
17200;DHT22;8716;52.268;20.968;2023-05-21T14:25:09;26.40;55.30
17200;DHT22;8716;52.268;20.968;2023-05-21T14:27:37;26.40;55.70
17200;DHT22;8716;52.268;20.968;2023-05-21T14:30:07;26.40;55.30
17200;DHT22;8716;52.268;20.968;2023-05-21T14:32:35;26.30;55.60
17200;DHT22;8716;52.268;20.968;2023-05-21T14:35:04;26.40;56.30
17200;DHT22;8716;52.268;20.968;2023-05-21T14:37:32;26.40;56.20
17200;DHT22;8716;52.268;20.968;2023-05-21T14:40:01;26.40;55.50
17200;DHT22;8716;52.268;20.968;2023-05-21T14:42:32;26.40;55.40
17200;DHT22;8716;52.268;20.968;2023-05-21T14:45:01;26.40;55.40
17200;DHT22;8716;52.268;20.968;2023-05-21T14:47:44;26.40;55.50
17200;DHT22;8716;52.268;20.968;2023-05-21T14:50:15;26.40;55.80
17200;DHT22;8716;52.268;20.968;2023-05-21T14:52:43;26.40;55.70
17200;DHT22;8716;52.268;20.968;2023-05-21T14:55:11;26.40;55.50
17200;DHT22;8716;52.268;20.968;2023-05-21T14:57:44;26.40;55.00
17200;DHT22;8716;52.268;20.968;2023-05-21T15:00:12;26.40;54.30
17200;DHT22;8716;52.268;20.968;2023-05-21T15:02:41;26.40;54.20
17200;DHT22;8716;52.268;20.968;2023-05-21T15:05:12;26.40;53.80
17200;DHT22;8716;52.268;20.968;2023-05-21T15:07:40;26.40;53.60
17200;DHT22;8716;52.268;20.968;2023-05-21T15:10:09;26.30;53.70
17200;DHT22;8716;52.268;20.968;2023-05-21T15:12:40;26.30;53.50
17200;DHT22;8716;52.268;20.968;2023-05-21T15:15:10;26.40;53.10
17200;DHT22;8716;52.268;20.968;2023-05-21T15:17:42;26.30;53.20
17200;DHT22;8716;52.268;20.968;2023-05-21T15:20:14;26.20;53.50
17200;DHT22;8716;52.268;20.968;2023-05-21T15:22:45;26.20;53.30
17200;DHT22;8716;52.268;20.968;2023-05-21T15:25:14;26.10;53.30
17200;DHT22;8716;52.268;20.968;2023-05-21T15:27:45;26.00;53.60
17200;DHT22;8716;52.268;20.968;2023-05-21T15:30:17;26.00;53.70
17200;DHT22;8716;52.268;20.968;2023-05-21T15:32:46;26.00;53.90
17200;DHT22;8716;52.268;20.968;2023-05-21T15:35:14;26.00;54.30
17200;DHT22;8716;52.268;20.968;2023-05-21T15:37:42;25.80;54.60
17200;DHT22;8716;52.268;20.968;2023-05-21T15:40:12;25.80;54.70
17200;DHT22;8716;52.268;20.968;2023-05-21T15:42:41;25.80;54.70
17200;DHT22;8716;52.268;20.968;2023-05-21T15:45:09;25.80;54.40
17200;DHT22;8716;52.268;20.968;2023-05-21T15:47:41;25.80;54.60
17200;DHT22;8716;52.268;20.968;2023-05-21T15:50:10;25.70;55.00
17200;DHT22;8716;52.268;20.968;2023-05-21T15:52:39;25.70;55.50
17200;DHT22;8716;52.268;20.968;2023-05-21T15:55:10;25.70;55.60